Time;durP1;ratioP1;P1;durP2;ratioP2;P2;SDS_P1;SDS_P2;PMS_P1;PMS_P2;Temp;Humidity;BMP_temperature;BMP_pressure;BME280_temperature;BME280_humidity;BME280_pressure;Samples;Min_cycle;Max_cycle;Signal;HPM_P1;HPM_P2
2024/02/04 00:00:53;;;;;;;15.18;13.52;;;10.40;99.90;;;;;;4984557;28;20491;-85
2024/02/04 00:03:21;;;;;;;18.10;12.68;;;10.40;99.90;;;;;;4950184;28;20043;-87
2024/02/04 00:05:48;;;;;;;12.43;10.63;;;10.40;99.90;;;;;;4950530;28;20039;-87
2024/02/04 00:08:17;;;;;;;12.95;10.48;;;10.40;99.90;;;;;;4950255;28;20042;-87
2024/02/04 00:10:43;;;;;;;14.90;11.30;;;10.40;99.90;;;;;;4950797;28;20050;-87
2024/02/04 00:13:09;;;;;;;10.05;9.05;;;10.40;99.90;;;;;;4968735;28;20039;-87
2024/02/04 00:15:36;;;;;;;9.05;8.15;;;10.40;99.90;;;;;;4982898;28;20030;-86
2024/02/04 00:18:02;;;;;;;7.80;7.00;;;10.30;99.90;;;;;;4947976;28;20036;-84
2024/02/04 00:20:29;;;;;;;8.95;7.20;;;10.40;99.90;;;;;;4936309;28;20031;-86
2024/02/04 00:22:55;;;;;;;7.95;7.15;;;10.40;99.90;;;;;;4951517;28;20039;-87
2024/02/04 00:25:23;;;;;;;7.47;6.78;;;10.30;99.90;;;;;;4968419;28;20054;-87
2024/02/04 00:27:49;;;;;;;14.27;10.75;;;10.40;99.90;;;;;;4961712;28;20043;-85
2024/02/04 00:30:16;;;;;;;8.80;7.90;;;10.40;99.90;;;;;;4919889;28;20047;-85
2024/02/04 00:32:42;;;;;;;18.30;14.10;;;10.40;99.90;;;;;;4951500;28;20086;-85
2024/02/04 00:35:08;;;;;;;16.05;11.27;;;10.40;99.90;;;;;;4952843;28;20051;-86
2024/02/04 00:37:35;;;;;;;12.73;10.27;;;10.30;99.90;;;;;;4934750;28;20042;-86
2024/02/04 00:40:01;;;;;;;12.27;9.55;;;10.40;99.90;;;;;;4966040;28;20038;-85
2024/02/04 00:42:28;;;;;;;10.82;8.00;;;10.40;99.90;;;;;;4948671;28;20517;-86
2024/02/04 00:44:54;;;;;;;10.50;8.43;;;10.30;99.90;;;;;;4949565;28;20058;-88
2024/02/04 00:47:20;;;;;;;9.40;8.40;;;10.30;99.90;;;;;;4964100;28;20046;-88
2024/02/04 00:49:47;;;;;;;7.68;6.88;;;10.30;99.90;;;;;;4966193;28;20044;-86
2024/02/04 00:52:13;;;;;;;8.95;7.80;;;10.30;99.90;;;;;;4950436;28;20046;-88
2024/02/04 00:54:39;;;;;;;9.35;7.13;;;10.40;99.90;;;;;;4966308;28;20043;-86
2024/02/04 00:57:06;;;;;;;7.82;7.03;;;10.30;99.90;;;;;;4963716;28;20046;-84
2024/02/04 00:59:32;;;;;;;10.68;8.60;;;10.30;99.90;;;;;;4919380;28;20043;-85
2024/02/04 01:01:59;;;;;;;23.92;15.02;;;10.30;99.90;;;;;;4934367;28;20046;-87
2024/02/04 01:04:25;;;;;;;18.38;15.45;;;10.30;99.90;;;;;;4963017;28;20050;-86
2024/02/04 01:06:52;;;;;;;24.00;17.80;;;10.30;99.90;;;;;;4948193;28;20047;-85
2024/02/04 01:09:18;;;;;;;25.50;18.67;;;10.30;99.90;;;;;;4979608;28;20042;-85
2024/02/04 01:11:45;;;;;;;28.13;19.85;;;10.30;99.90;;;;;;4949284;28;21275;-84
2024/02/04 01:14:11;;;;;;;26.13;19.60;;;10.30;99.90;;;;;;4948674;28;20244;-85
2024/02/04 01:16:37;;;;;;;24.33;18.65;;;10.30;99.90;;;;;;4946332;28;20043;-85
2024/02/04 01:19:04;;;;;;;30.52;18.73;;;10.40;99.90;;;;;;4950909;28;20524;-85
2024/02/04 01:21:30;;;;;;;28.75;19.50;;;10.40;99.90;;;;;;4948622;28;20747;-84
2024/02/04 01:23:56;;;;;;;25.67;19.85;;;10.30;99.90;;;;;;4949193;28;20051;-84
2024/02/04 01:26:24;;;;;;;22.10;18.65;;;10.30;99.90;;;;;;4948399;28;20047;-84
2024/02/04 01:28:50;;;;;;;29.60;20.77;;;10.30;99.90;;;;;;4962783;28;20040;-84
2024/02/04 01:31:16;;;;;;;28.50;21.65;;;10.30;99.90;;;;;;4950917;28;20042;-84
2024/02/04 01:33:43;;;;;;;26.17;21.38;;;10.40;99.90;;;;;;4979776;28;20031;-83
2024/02/04 01:36:09;;;;;;;29.30;22.77;;;10.30;99.90;;;;;;4947001;28;20043;-83
2024/02/04 01:38:35;;;;;;;31.40;21.35;;;10.30;99.90;;;;;;4946524;28;20053;-83
2024/02/04 01:41:02;;;;;;;38.58;25.95;;;10.30;99.90;;;;;;4950057;28;20058;-83
2024/02/04 01:43:29;;;;;;;33.70;24.15;;;10.30;99.90;;;;;;4935863;28;20487;-83
2024/02/04 01:45:56;;;;;;;38.28;23.83;;;10.30;99.90;;;;;;4951799;28;20047;-83
2024/02/04 01:48:22;;;;;;;40.92;24.85;;;10.30;99.90;;;;;;4934214;28;20035;-83
2024/02/04 01:50:54;;;;;;;32.97;21.90;;;10.30;99.90;;;;;;4948665;28;20039;-84
2024/02/04 01:53:23;;;;;;;36.78;23.95;;;10.30;99.90;;;;;;4934915;28;20057;-83
2024/02/04 01:55:49;;;;;;;33.55;24.48;;;10.30;99.90;;;;;;4962814;28;20047;-84
2024/02/04 01:58:16;;;;;;;33.95;22.00;;;10.30;99.90;;;;;;4961565;28;20406;-82
2024/02/04 02:00:43;;;;;;;23.80;18.15;;;10.30;99.90;;;;;;4949664;28;20047;-84
2024/02/04 02:03:12;;;;;;;33.85;20.90;;;10.30;99.90;;;;;;4932416;28;20032;-82
2024/02/04 02:05:40;;;;;;;52.17;27.80;;;10.30;99.90;;;;;;4931320;28;20050;-82
2024/02/04 02:08:07;;;;;;;34.95;24.52;;;10.30;99.90;;;;;;4960616;28;20745;-83
2024/02/04 02:10:33;;;;;;;39.28;25.33;;;10.30;99.90;;;;;;4947142;28;20039;-82
2024/02/04 02:13:09;;;;;;;31.90;21.05;;;10.30;99.90;;;;;;4948209;28;20047;-83
2024/02/04 02:15:43;;;;;;;28.80;20.20;;;10.30;99.90;;;;;;4946112;28;20043;-83
2024/02/04 02:18:26;;;;;;;31.35;20.77;;;10.30;99.90;;;;;;4947825;28;20031;-82
2024/02/04 02:21:18;;;;;;;32.25;21.30;;;10.20;99.90;;;;;;4948304;28;20039;-83
2024/02/04 02:24:23;;;;;;;34.50;21.75;;;10.20;99.90;;;;;;4949694;28;20035;-83
2024/02/04 02:26:50;;;;;;;30.90;19.42;;;10.20;99.90;;;;;;4904669;29;20051;-83
2024/02/04 02:29:17;;;;;;;30.73;21.33;;;10.20;99.90;;;;;;4934534;28;20035;-83
2024/02/04 02:31:43;;;;;;;35.45;21.70;;;10.20;99.90;;;;;;4966551;28;20046;-83
2024/02/04 02:34:11;;;;;;;30.83;19.25;;;10.20;99.90;;;;;;4979999;28;20612;-83
2024/02/04 02:36:47;;;;;;;28.88;18.50;;;10.20;99.90;;;;;;4929628;28;20031;-83
2024/02/04 02:39:27;;;;;;;27.52;16.95;;;10.20;99.90;;;;;;4947362;28;20529;-82
2024/02/04 02:41:57;;;;;;;31.58;20.38;;;10.20;99.90;;;;;;4964207;28;20039;-81
2024/02/04 02:44:25;;;;;;;27.88;17.00;;;10.20;99.90;;;;;;4961932;28;20486;-83
2024/02/04 02:46:55;;;;;;;32.17;18.10;;;10.20;99.90;;;;;;4945696;28;20040;-82
2024/02/04 02:49:22;;;;;;;34.17;19.05;;;10.20;99.90;;;;;;4961881;28;20407;-82
2024/02/04 02:51:48;;;;;;;30.83;18.90;;;10.20;99.90;;;;;;4946927;28;20066;-82
2024/02/04 02:54:15;;;;;;;23.83;16.42;;;10.20;99.90;;;;;;4980221;28;20042;-81
2024/02/04 02:56:41;;;;;;;28.20;15.77;;;10.20;99.90;;;;;;4977596;28;20043;-82
2024/02/04 02:59:08;;;;;;;26.40;16.05;;;10.20;99.90;;;;;;4962201;28;20046;-82
2024/02/04 03:01:34;;;;;;;32.85;17.95;;;10.20;99.90;;;;;;4932955;28;20051;-82
2024/02/04 03:04:00;;;;;;;26.17;16.50;;;10.20;99.90;;;;;;4979047;28;20031;-82
2024/02/04 03:06:27;;;;;;;29.45;17.08;;;10.20;99.90;;;;;;4945802;28;20050;-81
2024/02/04 03:08:53;;;;;;;36.42;20.77;;;10.20;99.90;;;;;;4946546;28;20032;-82
2024/02/04 03:11:20;;;;;;;35.17;18.95;;;10.20;99.90;;;;;;4947034;28;20050;-82
2024/02/04 03:13:46;;;;;;;32.63;19.55;;;10.20;99.90;;;;;;4948551;28;20031;-84
2024/02/04 03:16:13;;;;;;;31.15;18.27;;;10.10;99.90;;;;;;4947784;28;20073;-83
2024/02/04 03:18:40;;;;;;;36.90;20.10;;;10.10;99.90;;;;;;4948258;28;20387;-83
2024/02/04 03:21:17;;;;;;;37.22;21.02;;;10.10;99.90;;;;;;4959907;28;20048;-84
2024/02/04 03:23:44;;;;;;;42.78;22.52;;;10.00;99.90;;;;;;4930737;28;20059;-84
2024/02/04 03:26:11;;;;;;;40.90;21.95;;;10.00;99.90;;;;;;4963313;28;20043;-83
2024/02/04 03:28:38;;;;;;;36.53;19.25;;;10.00;99.90;;;;;;4931097;28;20028;-84
2024/02/04 03:31:05;;;;;;;39.70;22.13;;;10.00;99.90;;;;;;4944709;28;20042;-83
2024/02/04 03:33:31;;;;;;;35.72;19.92;;;10.00;99.90;;;;;;4948416;28;20035;-83
2024/02/04 03:35:58;;;;;;;36.17;21.23;;;10.00;99.90;;;;;;4961961;28;20046;-84
2024/02/04 03:38:24;;;;;;;40.55;21.52;;;10.00;99.90;;;;;;4949594;28;20486;-82
2024/02/04 03:40:52;;;;;;;36.78;21.83;;;10.00;99.90;;;;;;4933634;28;20043;-83
2024/02/04 03:43:18;;;;;;;36.47;20.58;;;10.00;99.90;;;;;;4947460;28;20039;-83
2024/02/04 03:45:45;;;;;;;32.42;19.05;;;10.00;99.90;;;;;;4931413;28;20042;-84
2024/02/04 03:48:11;;;;;;;52.30;26.15;;;10.00;99.90;;;;;;4945521;28;20487;-84
2024/02/04 03:50:38;;;;;;;46.25;23.20;;;10.00;99.90;;;;;;4962668;28;20038;-84
2024/02/04 03:53:04;;;;;;;40.85;25.20;;;10.00;99.90;;;;;;4950308;28;20032;-84
2024/02/04 03:55:30;;;;;;;41.30;24.73;;;10.00;99.90;;;;;;4963557;28;20034;-84
2024/02/04 03:57:58;;;;;;;40.00;23.48;;;9.90;99.90;;;;;;4928658;28;20058;-84
2024/02/04 04:00:24;;;;;;;35.00;22.20;;;9.90;99.90;;;;;;4948840;28;20379;-84
2024/02/04 04:02:50;;;;;;;42.00;20.88;;;9.90;99.90;;;;;;4931589;28;20039;-84
2024/02/04 04:05:17;;;;;;;35.70;19.13;;;9.90;99.90;;;;;;4947477;28;20035;-84
2024/02/04 04:07:43;;;;;;;31.15;17.40;;;9.80;99.90;;;;;;4945537;28;20066;-81
2024/02/04 04:10:10;;;;;;;28.10;16.65;;;9.80;99.90;;;;;;4963179;28;20046;-83
2024/02/04 04:12:36;;;;;;;32.47;18.55;;;9.80;99.90;;;;;;4962510;28;20027;-84
2024/02/04 04:15:03;;;;;;;36.47;18.13;;;9.80;99.90;;;;;;4946740;28;20041;-83
2024/02/04 04:17:29;;;;;;;32.40;19.08;;;9.80;99.90;;;;;;4959976;28;20189;-83
2024/02/04 04:19:56;;;;;;;33.90;17.60;;;9.80;99.90;;;;;;4964140;28;20652;-85
2024/02/04 04:22:22;;;;;;;29.75;15.85;;;9.80;99.90;;;;;;4947564;28;20824;-84
2024/02/04 04:24:49;;;;;;;25.33;14.50;;;9.70;99.90;;;;;;4932417;28;20039;-82
2024/02/04 04:27:15;;;;;;;24.38;14.43;;;9.70;99.90;;;;;;4945915;28;20056;-83
2024/02/04 04:29:41;;;;;;;30.73;16.90;;;9.70;99.90;;;;;;4960140;28;20032;-83
2024/02/04 04:32:08;;;;;;;28.20;16.08;;;9.70;99.90;;;;;;4928901;28;20043;-83
2024/02/04 04:34:34;;;;;;;26.35;16.23;;;9.70;99.90;;;;;;4947877;28;20074;-83
2024/02/04 04:37:00;;;;;;;27.50;16.40;;;9.70;99.90;;;;;;4959335;28;20038;-84
2024/02/04 04:39:27;;;;;;;37.17;17.17;;;9.70;99.90;;;;;;4932516;28;20027;-84
2024/02/04 04:41:53;;;;;;;30.88;15.90;;;9.70;99.90;;;;;;4966018;28;20047;-83
2024/02/04 04:44:19;;;;;;;32.72;18.00;;;9.70;99.90;;;;;;4950408;28;20378;-83
2024/02/04 04:46:47;;;;;;;35.25;16.80;;;9.70;99.90;;;;;;4948582;28;20043;-83
2024/02/04 04:49:13;;;;;;;33.22;17.55;;;9.70;99.90;;;;;;4934791;28;20035;-84
2024/02/04 04:51:43;;;;;;;29.42;17.00;;;9.70;99.90;;;;;;4965884;28;20036;-84
2024/02/04 04:54:10;;;;;;;37.17;20.15;;;9.70;99.90;;;;;;4981142;28;20470;-83
2024/02/04 04:56:40;;;;;;;40.63;20.23;;;9.70;99.90;;;;;;4948001;28;20047;-83
2024/02/04 04:59:07;;;;;;;37.47;19.52;;;9.70;99.90;;;;;;4965680;28;20384;-83
2024/02/04 05:01:33;;;;;;;32.58;18.90;;;9.70;99.90;;;;;;4951000;28;20039;-86
2024/02/04 05:04:00;;;;;;;42.00;20.85;;;9.70;99.90;;;;;;4949306;28;20046;-82
2024/02/04 05:06:26;;;;;;;28.27;15.65;;;9.70;99.90;;;;;;4948169;28;21156;-85
2024/02/04 05:08:53;;;;;;;34.22;18.30;;;9.60;99.90;;;;;;4933772;28;20160;-85
2024/02/04 05:11:19;;;;;;;29.33;16.80;;;9.60;99.90;;;;;;4951247;28;20047;-83
2024/02/04 05:13:46;;;;;;;31.73;16.50;;;9.60;99.90;;;;;;4946946;28;20275;-85
2024/02/04 05:16:12;;;;;;;34.40;17.83;;;9.60;99.90;;;;;;4980569;28;20391;-83
2024/02/04 05:18:39;;;;;;;39.85;19.48;;;9.60;99.90;;;;;;4948981;28;20248;-84
2024/02/04 05:21:05;;;;;;;30.00;17.90;;;9.60;99.90;;;;;;4949101;28;20039;-85
2024/02/04 05:23:32;;;;;;;36.55;19.60;;;9.60;99.90;;;;;;4967536;28;20235;-84
2024/02/04 05:26:05;;;;;;;32.15;17.05;;;9.50;99.90;;;;;;4950835;28;20422;-82
2024/02/04 05:28:32;;;;;;;31.33;16.42;;;9.50;99.90;;;;;;4950789;28;22996;-82
2024/02/04 05:30:58;;;;;;;31.15;16.27;;;9.50;99.90;;;;;;4955826;28;20031;-83
2024/02/04 05:33:25;;;;;;;24.88;14.75;;;9.40;99.90;;;;;;4955231;28;20093;-81
2024/02/04 05:35:51;;;;;;;31.23;15.45;;;9.40;99.90;;;;;;4967575;28;20108;-82
2024/02/04 05:38:17;;;;;;;23.85;13.25;;;9.40;99.90;;;;;;4949679;28;20462;-83
2024/02/04 05:40:44;;;;;;;28.92;16.13;;;9.40;99.90;;;;;;4934364;28;20835;-83
2024/02/04 05:43:10;;;;;;;31.02;15.32;;;9.40;99.90;;;;;;4964346;28;20030;-83
2024/02/04 05:45:42;;;;;;;28.15;14.30;;;9.40;99.90;;;;;;4933524;28;20023;-83
2024/02/04 05:48:09;;;;;;;31.60;15.57;;;9.40;99.90;;;;;;4948503;28;20054;-85
2024/02/04 05:50:36;;;;;;;35.65;15.27;;;9.40;99.90;;;;;;4966813;28;20356;-81
2024/02/04 05:53:02;;;;;;;27.58;14.77;;;9.40;99.90;;;;;;4951087;28;20335;-82
2024/02/04 05:55:29;;;;;;;27.23;14.70;;;9.40;99.90;;;;;;4966794;28;20034;-85
2024/02/04 05:57:55;;;;;;;33.63;16.88;;;9.40;99.90;;;;;;4963998;28;20057;-83
2024/02/04 06:00:22;;;;;;;29.60;15.20;;;9.30;99.90;;;;;;4936736;28;20523;-83
2024/02/04 06:02:49;;;;;;;28.80;15.43;;;9.30;99.90;;;;;;4951890;28;20031;-82
2024/02/04 06:05:15;;;;;;;26.63;15.18;;;9.30;99.90;;;;;;4950871;28;20046;-83
2024/02/04 06:07:45;;;;;;;27.88;15.43;;;9.40;99.90;;;;;;4962796;28;21391;-84
2024/02/04 06:10:11;;;;;;;32.28;15.85;;;9.30;99.90;;;;;;4962873;28;20031;-84
2024/02/04 06:12:40;;;;;;;39.25;18.60;;;9.40;99.90;;;;;;4954737;28;20053;-82
2024/02/04 06:15:14;;;;;;;35.97;18.10;;;9.30;99.90;;;;;;4966519;28;20482;-83
2024/02/04 06:17:40;;;;;;;31.83;17.02;;;9.40;99.90;;;;;;4961377;28;20031;-84
2024/02/04 06:20:07;;;;;;;33.05;15.95;;;9.30;99.90;;;;;;4949366;28;20387;-83
2024/02/04 06:22:37;;;;;;;38.22;19.50;;;9.40;99.90;;;;;;4933494;28;20402;-82
2024/02/04 06:25:04;;;;;;;39.53;18.77;;;9.40;99.90;;;;;;4949107;28;20505;-85
2024/02/04 06:27:31;;;;;;;28.15;16.55;;;9.40;99.90;;;;;;4945410;28;20050;-82
2024/02/04 06:29:57;;;;;;;32.33;17.05;;;9.30;99.90;;;;;;4962524;28;21113;-84
2024/02/04 06:32:24;;;;;;;37.10;17.90;;;9.30;99.90;;;;;;4931195;28;20043;-83
2024/02/04 06:34:51;;;;;;;34.05;16.77;;;9.30;99.90;;;;;;4950216;28;20050;-84
2024/02/04 06:37:17;;;;;;;34.80;17.08;;;9.30;99.90;;;;;;4962481;28;20043;-83
2024/02/04 06:39:43;;;;;;;31.75;16.77;;;9.30;99.90;;;;;;4932857;28;20031;-83
2024/02/04 06:42:10;;;;;;;30.88;16.48;;;9.30;99.90;;;;;;4962947;28;20046;-83
2024/02/04 06:44:36;;;;;;;30.38;16.25;;;9.20;99.90;;;;;;4934321;28;20046;-84
2024/02/04 06:47:02;;;;;;;33.55;15.02;;;9.30;99.90;;;;;;4930640;28;20043;-83
2024/02/04 06:49:29;;;;;;;28.92;13.88;;;9.30;99.90;;;;;;4948560;28;20039;-82
2024/02/04 06:51:57;;;;;;;29.63;15.02;;;9.30;99.90;;;;;;4948984;28;20027;-86
2024/02/04 06:54:23;;;;;;;27.85;14.48;;;9.30;99.90;;;;;;4949772;28;20038;-83
2024/02/04 06:56:52;;;;;;;38.55;18.55;;;9.30;99.90;;;;;;4963175;28;20030;-86
2024/02/04 06:59:19;;;;;;;31.38;16.67;;;9.30;99.90;;;;;;4950500;28;20498;-83
2024/02/04 07:01:45;;;;;;;38.40;19.25;;;9.30;99.90;;;;;;4949908;28;20570;-84
2024/02/04 07:04:11;;;;;;;37.05;21.20;;;9.30;99.90;;;;;;4934456;28;20514;-84
2024/02/04 07:06:38;;;;;;;41.58;21.38;;;9.40;99.90;;;;;;4948439;28;20039;-80
2024/02/04 07:09:04;;;;;;;45.20;22.65;;;9.40;99.90;;;;;;4949624;28;20513;-85
2024/02/04 07:11:30;;;;;;;40.75;21.63;;;9.40;99.90;;;;;;4948868;28;20043;-84
2024/02/04 07:14:01;;;;;;;38.97;20.80;;;9.40;99.90;;;;;;4934782;28;20031;-86
2024/02/04 07:16:27;;;;;;;48.15;25.60;;;9.40;99.90;;;;;;4949968;28;20438;-88
2024/02/04 07:18:55;;;;;;;51.10;27.80;;;9.40;99.90;;;;;;4935366;28;20407;-82
2024/02/04 07:21:21;;;;;;;56.75;31.63;;;9.40;99.90;;;;;;4951940;28;20042;-85
2024/02/04 07:23:47;;;;;;;53.92;30.00;;;9.40;99.90;;;;;;4933316;28;20480;-83
2024/02/04 07:26:14;;;;;;;56.00;29.33;;;9.40;99.90;;;;;;4962736;28;20046;-84
2024/02/04 07:28:40;;;;;;;53.88;30.48;;;9.40;99.90;;;;;;4931375;28;20035;-86
2024/02/04 07:31:07;;;;;;;43.47;25.70;;;9.40;99.90;;;;;;4962750;28;20035;-85
2024/02/04 07:33:33;;;;;;;53.47;28.98;;;9.50;99.90;;;;;;4947422;28;20043;-84
2024/02/04 07:35:59;;;;;;;65.95;34.72;;;9.50;99.90;;;;;;4963793;28;20055;-84
2024/02/04 07:38:26;;;;;;;60.78;33.03;;;9.50;99.90;;;;;;4946725;28;20019;-84
2024/02/04 07:40:52;;;;;;;58.72;34.22;;;9.50;99.90;;;;;;4963462;28;20035;-83
2024/02/04 07:43:19;;;;;;;70.72;36.22;;;9.50;99.90;;;;;;4947079;28;20047;-84
2024/02/04 07:45:45;;;;;;;58.25;34.35;;;9.60;99.90;;;;;;4961916;28;20478;-85
2024/02/04 07:48:12;;;;;;;69.25;35.30;;;9.60;99.90;;;;;;4945701;28;20035;-85
2024/02/04 07:50:38;;;;;;;64.22;36.97;;;9.60;99.90;;;;;;4948236;28;20691;-84
2024/02/04 07:53:05;;;;;;;63.45;34.72;;;9.60;99.90;;;;;;4948531;28;20046;-85
2024/02/04 07:55:31;;;;;;;58.55;35.95;;;9.60;99.90;;;;;;4931384;28;20047;-85
2024/02/04 07:57:57;;;;;;;55.03;33.15;;;9.60;99.90;;;;;;4958103;28;20134;-83
2024/02/04 08:00:23;;;;;;;50.83;32.63;;;9.70;99.90;;;;;;4948668;28;20046;-82
2024/02/04 08:02:50;;;;;;;51.63;31.83;;;9.70;99.90;;;;;;4945979;28;20050;-84
2024/02/04 08:05:16;;;;;;;54.88;33.95;;;9.70;99.90;;;;;;4944849;28;20066;-84
2024/02/04 08:07:42;;;;;;;50.33;30.58;;;9.80;99.90;;;;;;4942843;28;20047;-85
2024/02/04 08:10:09;;;;;;;54.05;30.88;;;9.80;99.90;;;;;;4947171;28;20035;-82
2024/02/04 08:12:35;;;;;;;51.90;30.23;;;9.80;99.90;;;;;;4961111;28;20031;-84
2024/02/04 08:15:02;;;;;;;47.17;31.20;;;9.80;99.90;;;;;;4948300;28;20491;-84
2024/02/04 08:17:30;;;;;;;50.78;29.40;;;9.80;99.90;;;;;;4960774;28;20414;-82
2024/02/04 08:19:57;;;;;;;43.00;25.63;;;9.80;99.90;;;;;;4948101;28;20035;-84
2024/02/04 08:22:23;;;;;;;41.28;24.17;;;9.90;99.90;;;;;;4979278;28;20042;-83
2024/02/04 08:24:50;;;;;;;43.88;23.10;;;9.80;99.90;;;;;;4979102;28;20051;-84
2024/02/04 08:27:17;;;;;;;28.67;19.08;;;9.80;99.90;;;;;;4962078;28;20042;-85
2024/02/04 08:29:44;;;;;;;29.65;19.40;;;9.80;99.90;;;;;;4963978;28;20038;-84
2024/02/04 08:32:12;;;;;;;30.75;18.15;;;9.80;99.90;;;;;;4948855;28;20031;-83
2024/02/04 08:34:39;;;;;;;28.80;16.35;;;9.80;99.90;;;;;;4962757;28;20031;-83
2024/02/04 08:37:06;;;;;;;25.05;14.60;;;9.80;99.90;;;;;;4928286;28;20046;-84
2024/02/04 08:39:33;;;;;;;24.00;16.40;;;9.80;99.90;;;;;;4977843;28;20446;-84
2024/02/04 08:41:59;;;;;;;29.92;16.80;;;9.80;99.90;;;;;;4947168;28;20039;-85
2024/02/04 08:44:26;;;;;;;25.73;17.08;;;9.80;99.90;;;;;;4947246;28;20438;-83
2024/02/04 08:46:52;;;;;;;32.92;17.92;;;9.80;99.90;;;;;;4947842;28;20047;-84
2024/02/04 08:49:18;;;;;;;31.13;18.33;;;9.80;99.90;;;;;;4948699;28;20526;-84
2024/02/04 08:51:45;;;;;;;26.65;16.55;;;9.80;99.90;;;;;;4963069;28;20050;-83
2024/02/04 08:54:11;;;;;;;34.90;19.02;;;9.80;99.90;;;;;;4964978;28;20027;-83
2024/02/04 08:56:38;;;;;;;29.67;17.92;;;9.80;99.90;;;;;;4963549;28;20676;-83
2024/02/04 08:59:06;;;;;;;31.48;18.63;;;9.80;99.90;;;;;;4947048;28;20054;-82
2024/02/04 09:01:32;;;;;;;28.45;16.13;;;9.90;99.90;;;;;;4948474;28;20070;-83
2024/02/04 09:03:58;;;;;;;32.67;17.65;;;9.90;99.90;;;;;;4946938;28;20047;-84
2024/02/04 09:06:25;;;;;;;23.73;15.57;;;9.90;99.90;;;;;;4946908;28;20035;-83
2024/02/04 09:08:51;;;;;;;31.50;16.50;;;9.90;99.90;;;;;;4961858;28;20039;-82
2024/02/04 09:11:20;;;;;;;27.42;15.23;;;9.90;99.90;;;;;;4933186;28;20374;-83
2024/02/04 09:13:46;;;;;;;25.98;14.90;;;9.90;99.90;;;;;;4965802;28;20039;-82
2024/02/04 09:16:13;;;;;;;24.33;15.52;;;9.90;99.90;;;;;;4954718;28;20031;-82
2024/02/04 09:18:39;;;;;;;28.20;16.15;;;9.90;99.90;;;;;;4949164;28;20054;-84
2024/02/04 09:21:06;;;;;;;32.88;17.75;;;9.90;99.90;;;;;;4932454;28;20070;-83
2024/02/04 09:23:33;;;;;;;24.25;16.25;;;9.90;99.90;;;;;;4965165;28;20371;-84
2024/02/04 09:25:59;;;;;;;32.30;16.25;;;9.90;99.90;;;;;;4950276;28;20505;-83
2024/02/04 09:28:25;;;;;;;27.73;16.75;;;10.00;99.90;;;;;;4963532;28;20047;-82
2024/02/04 09:30:52;;;;;;;27.75;16.08;;;10.00;99.90;;;;;;4965912;28;20908;-82
2024/02/04 09:33:18;;;;;;;26.08;16.48;;;10.00;99.90;;;;;;4947996;28;20044;-83
2024/02/04 09:35:46;;;;;;;27.23;18.92;;;10.00;99.90;;;;;;4949243;28;20039;-83
2024/02/04 09:38:12;;;;;;;34.65;20.63;;;10.00;99.90;;;;;;4964866;28;20047;-83
2024/02/04 09:40:39;;;;;;;28.08;19.75;;;10.10;99.90;;;;;;4933047;28;20019;-83
2024/02/04 09:43:06;;;;;;;28.02;19.58;;;10.10;99.90;;;;;;4980483;28;20039;-83
2024/02/04 09:45:33;;;;;;;27.55;19.65;;;10.10;99.90;;;;;;4946294;28;20517;-83
2024/02/04 09:48:01;;;;;;;30.70;19.83;;;10.20;99.90;;;;;;4962399;28;20403;-83
2024/02/04 09:50:27;;;;;;;31.10;20.15;;;10.20;99.90;;;;;;4963969;28;20031;-83
2024/02/04 09:53:01;;;;;;;30.85;19.55;;;10.30;99.90;;;;;;4932351;28;20459;-83
2024/02/04 09:55:30;;;;;;;26.75;18.52;;;10.30;99.90;;;;;;4950888;28;20399;-83
2024/02/04 09:57:56;;;;;;;25.92;19.35;;;10.30;99.90;;;;;;4930162;28;20569;-84
2024/02/04 10:00:25;;;;;;;29.27;18.42;;;10.40;99.90;;;;;;4946909;28;20602;-84
2024/02/04 10:02:55;;;;;;;25.13;16.60;;;10.40;99.90;;;;;;4966342;28;20044;-87
2024/02/04 10:05:21;;;;;;;27.13;17.65;;;10.40;99.90;;;;;;4947620;28;20043;-85
2024/02/04 10:07:48;;;;;;;21.73;15.55;;;10.50;99.90;;;;;;4933057;28;20474;-85
2024/02/04 10:10:14;;;;;;;21.00;15.68;;;10.50;99.90;;;;;;4935997;28;20035;-86
2024/02/04 10:12:43;;;;;;;25.55;14.55;;;10.50;99.90;;;;;;4966478;28;20458;-87
2024/02/04 10:15:10;;;;;;;20.42;13.30;;;10.60;99.90;;;;;;4965596;28;20062;-86
2024/02/04 10:17:36;;;;;;;21.15;12.80;;;10.60;99.90;;;;;;4947603;28;20039;-86
2024/02/04 10:20:03;;;;;;;19.60;13.20;;;10.60;99.90;;;;;;4965402;28;20035;-89
2024/02/04 10:22:29;;;;;;;19.15;12.75;;;10.70;99.90;;;;;;4967160;28;20043;-84
2024/02/04 10:25:11;;;;;;;19.40;12.05;;;10.70;99.90;;;;;;4950151;28;20042;-84
2024/02/04 10:27:38;;;;;;;16.08;10.63;;;10.80;99.90;;;;;;4944872;28;20554;-85
2024/02/04 10:30:05;;;;;;;18.02;10.70;;;10.80;99.90;;;;;;4963358;28;20521;-86
2024/02/04 10:32:32;;;;;;;13.05;9.32;;;10.90;99.90;;;;;;4980619;28;20497;-86
2024/02/04 10:34:59;;;;;;;17.45;9.52;;;10.90;99.90;;;;;;4979972;28;20035;-86
2024/02/04 10:37:25;;;;;;;14.10;9.75;;;10.90;99.90;;;;;;4929420;28;20048;-85
2024/02/04 10:39:51;;;;;;;11.35;7.82;;;11.00;99.90;;;;;;4933140;28;20047;-85
2024/02/04 10:42:27;;;;;;;11.80;8.98;;;11.00;99.90;;;;;;4915661;28;20047;-86
2024/02/04 10:44:54;;;;;;;13.73;7.95;;;11.00;99.90;;;;;;4961034;28;20031;-88
2024/02/04 10:47:29;;;;;;;12.05;8.55;;;11.00;99.90;;;;;;4946871;28;20043;-88
2024/02/04 10:49:58;;;;;;;17.80;8.35;;;11.00;99.90;;;;;;4947964;28;20043;-85
2024/02/04 10:52:27;;;;;;;12.63;7.43;;;11.10;99.90;;;;;;4947942;28;20486;-86
2024/02/04 10:54:55;;;;;;;11.20;6.55;;;11.10;99.90;;;;;;4946108;28;20042;-86
2024/02/04 10:57:22;;;;;;;12.23;6.32;;;11.20;99.90;;;;;;4930273;28;20044;-87
2024/02/04 10:59:51;;;;;;;10.88;5.90;;;11.20;99.90;;;;;;4932511;28;20387;-86
2024/02/04 11:02:17;;;;;;;12.43;5.68;;;11.30;99.90;;;;;;4949161;28;20031;-85
2024/02/04 11:04:45;;;;;;;11.43;4.82;;;11.30;99.90;;;;;;4949547;28;20039;-83
2024/02/04 11:07:13;;;;;;;8.50;4.20;;;11.30;99.90;;;;;;4932967;28;20039;-82
2024/02/04 11:09:40;;;;;;;7.28;3.88;;;11.30;99.90;;;;;;4942694;28;20058;-82
2024/02/04 11:12:14;;;;;;;6.03;3.00;;;11.40;99.90;;;;;;4956298;28;20050;-81
2024/02/04 11:14:44;;;;;;;6.10;2.50;;;11.40;99.90;;;;;;4955328;28;20057;-82
2024/02/04 11:17:16;;;;;;;8.07;2.47;;;11.30;99.90;;;;;;4964494;28;21500;-85
2024/02/04 11:20:07;;;;;;;6.15;1.75;;;11.30;99.90;;;;;;4981694;28;20482;-83
2024/02/04 11:22:44;;;;;;;6.28;2.10;;;11.30;99.90;;;;;;4947602;28;20047;-84
2024/02/04 11:25:33;;;;;;;7.55;1.90;;;11.30;99.90;;;;;;4948450;28;20035;-83
2024/02/04 11:27:59;;;;;;;4.32;1.65;;;11.30;99.90;;;;;;4928004;28;20066;-82
2024/02/04 11:30:26;;;;;;;9.10;2.03;;;11.20;99.90;;;;;;4948913;28;20039;-84
2024/02/04 11:32:53;;;;;;;5.47;1.63;;;11.10;99.90;;;;;;4962678;28;21086;-82
2024/02/04 11:35:21;;;;;;;4.25;1.48;;;11.10;99.90;;;;;;4949298;28;20035;-86
2024/02/04 11:37:47;;;;;;;4.32;1.35;;;11.10;99.90;;;;;;4961562;28;20047;-89
2024/02/04 11:40:17;;;;;;;4.72;1.30;;;11.00;99.90;;;;;;4964111;28;20044;-88
2024/02/04 11:42:43;;;;;;;3.03;0.80;;;11.00;99.90;;;;;;4964938;28;20505;-86
2024/02/04 11:45:12;;;;;;;3.20;1.20;;;11.00;99.90;;;;;;4947359;28;20027;-84
2024/02/04 11:47:39;;;;;;;1.55;0.68;;;11.00;99.90;;;;;;4960602;28;20035;-86
2024/02/04 11:50:06;;;;;;;2.22;0.73;;;11.00;99.90;;;;;;4936350;28;20466;-84
2024/02/04 11:52:33;;;;;;;3.03;0.95;;;11.00;99.90;;;;;;4968478;28;20502;-85
2024/02/04 11:54:59;;;;;;;1.70;1.10;;;11.00;99.90;;;;;;4950792;28;20035;-86
2024/02/04 11:57:26;;;;;;;2.95;1.85;;;11.00;99.90;;;;;;4950086;28;20058;-83
2024/02/04 11:59:57;;;;;;;2.35;1.50;;;11.10;99.90;;;;;;4966106;28;20046;-87
2024/02/04 12:02:23;;;;;;;2.65;1.02;;;11.10;99.90;;;;;;4965424;28;20035;-87
2024/02/04 12:04:51;;;;;;;1.83;1.00;;;11.10;99.90;;;;;;4952173;28;20060;-83
2024/02/04 12:07:17;;;;;;;2.78;1.00;;;11.10;99.90;;;;;;4933887;28;20038;-85
2024/02/04 12:09:44;;;;;;;1.88;1.17;;;11.10;99.90;;;;;;4967040;28;20054;-84
2024/02/04 12:12:11;;;;;;;1.60;1.30;;;11.00;99.90;;;;;;4934298;28;20058;-84
2024/02/04 12:14:39;;;;;;;2.42;1.40;;;11.00;99.90;;;;;;4952771;28;20035;-83
2024/02/04 12:17:13;;;;;;;2.67;2.47;;;11.10;99.90;;;;;;4963630;28;20734;-83
2024/02/04 12:19:39;;;;;;;7.75;4.05;;;11.00;99.90;;;;;;4981929;28;20514;-83
2024/02/04 12:22:09;;;;;;;4.63;3.80;;;10.90;99.90;;;;;;4934471;28;20553;-85
2024/02/04 12:24:37;;;;;;;8.00;6.20;;;10.90;99.90;;;;;;4932646;28;20502;-86
2024/02/04 12:27:05;;;;;;;11.80;9.57;;;10.90;99.90;;;;;;4952866;28;20054;-83
2024/02/04 12:29:32;;;;;;;9.32;7.18;;;10.90;99.90;;;;;;4948117;28;20039;-84
2024/02/04 12:32:00;;;;;;;10.70;8.13;;;10.80;99.90;;;;;;4949759;28;20042;-83
2024/02/04 12:34:26;;;;;;;15.82;9.65;;;10.80;99.90;;;;;;4967217;28;20047;-87
2024/02/04 12:37:03;;;;;;;11.38;9.20;;;10.80;99.90;;;;;;4963696;28;20207;-83